Time;durP1;ratioP1;P1;durP2;ratioP2;P2;SDS_P1;SDS_P2;PMS_P1;PMS_P2;Temp;Humidity;BMP_temperature;BMP_pressure;BME280_temperature;BME280_humidity;BME280_pressure;Samples;Min_cycle;Max_cycle;Signal;HPM_P1;HPM_P2
2020/12/26 00:01:15;;;;;;;15.63;7.00;;;;;;;0.80;86.69;99039.27;1852343;77;21111;-75
2020/12/26 00:03:44;;;;;;;14.58;7.12;;;;;;;0.80;86.73;99042.52;1852574;77;20919;-75
2020/12/26 00:06:17;;;;;;;14.35;6.10;;;;;;;0.77;86.97;99047.09;1852429;77;21468;-75
2020/12/26 00:08:45;;;;;;;12.98;6.47;;;;;;;0.77;87.06;99053.85;1851667;77;21163;-76
2020/12/26 00:11:15;;;;;;;17.85;7.62;;;;;;;0.75;87.03;99054.11;1852410;77;21200;-77
2020/12/26 00:13:42;;;;;;;17.30;7.78;;;;;;;0.76;87.47;99058.98;1852334;77;21056;-77
2020/12/26 00:16:12;;;;;;;17.40;8.35;;;;;;;0.76;87.35;99054.39;1852565;77;21037;-76
2020/12/26 00:18:41;;;;;;;17.02;7.25;;;;;;;0.77;87.42;99059.25;1852740;77;20926;-72
2020/12/26 00:21:12;;;;;;;16.05;7.10;;;;;;;0.75;87.59;99050.06;1852783;77;21107;-72
2020/12/26 00:23:40;;;;;;;14.70;6.87;;;;;;;0.76;87.64;99049.52;1852412;77;22368;-72
2020/12/26 00:26:08;;;;;;;16.40;6.53;;;;;;;0.75;87.81;99050.59;1852687;77;21520;-72
2020/12/26 00:28:35;;;;;;;13.18;5.90;;;;;;;0.76;88.01;99057.63;1852731;77;21014;-73
2020/12/26 00:31:03;;;;;;;16.25;7.75;;;;;;;0.77;87.97;99067.36;1852701;77;21072;-74
2020/12/26 00:33:31;;;;;;;13.30;6.42;;;;;;;0.75;88.10;99066.81;1852773;77;20907;-74
2020/12/26 00:36:01;;;;;;;14.98;6.80;;;;;;;0.74;88.24;99057.89;1852874;77;21378;-73
2020/12/26 00:38:29;;;;;;;12.63;6.70;;;;;;;0.74;88.40;99053.84;1827501;77;20973;-74
2020/12/26 00:40:56;;;;;;;14.58;5.95;;;;;;;0.74;88.42;99057.08;1852822;77;21026;-74
2020/12/26 00:43:24;;;;;;;10.38;4.97;;;;;;;0.73;88.66;99058.16;1852904;77;20937;-74
2020/12/26 00:45:51;;;;;;;10.95;5.28;;;;;;;0.73;88.74;99070.31;1852910;77;21048;-73
2020/12/26 00:48:19;;;;;;;11.28;5.33;;;;;;;0.72;89.03;99068.69;1852877;77;21319;-74
2020/12/26 00:50:47;;;;;;;11.63;5.03;;;;;;;0.73;89.38;99071.13;1852840;77;20985;-74
2020/12/26 00:53:15;;;;;;;8.23;4.10;;;;;;;0.70;89.19;99074.35;1852837;77;21025;-70
2020/12/26 00:55:42;;;;;;;7.72;4.28;;;;;;;0.69;89.25;99077.31;1852928;77;21029;-75
2020/12/26 00:58:10;;;;;;;10.23;4.45;;;;;;;0.63;89.19;99071.88;1852845;77;20922;-75
2020/12/26 01:00:38;;;;;;;7.00;4.10;;;;;;;0.62;89.67;99072.14;1853030;77;21557;-74
2020/12/26 01:03:16;;;;;;;6.15;3.70;;;;;;;0.65;89.93;99063.52;1776984;79;23333;-73
2020/12/26 01:05:44;;;;;;;5.95;3.85;;;;;;;0.61;89.91;99070.52;1749722;82;20915;-73
2020/12/26 01:08:11;;;;;;;6.28;4.20;;;;;;;0.58;90.00;99071.05;1749833;82;22320;-74
2020/12/26 01:10:38;;;;;;;13.22;4.42;;;;;;;0.56;90.04;99063.23;1749687;82;21014;-77
2020/12/26 01:13:06;;;;;;;9.88;4.50;;;;;;;0.55;90.36;99060.26;1749658;82;20926;-75
2020/12/26 01:15:33;;;;;;;9.73;4.55;;;;;;;0.55;90.46;99054.04;1749707;82;20923;-76
2020/12/26 01:18:00;;;;;;;9.70;3.98;;;;;;;0.53;90.37;99049.44;1749731;81;21112;-76
2020/12/26 01:20:28;;;;;;;7.65;3.58;;;;;;;0.55;90.52;99056.74;1749748;82;22184;-73
2020/12/26 01:22:55;;;;;;;5.92;3.72;;;;;;;0.54;90.80;99050.53;1749639;82;20934;-76
2020/12/26 01:25:23;;;;;;;6.95;3.58;;;;;;;0.57;91.19;99051.36;1749720;82;20962;-76
2020/12/26 01:27:51;;;;;;;5.87;3.37;;;;;;;0.60;91.06;99056.20;1749705;82;21002;-75
2020/12/26 01:30:18;;;;;;;5.03;2.95;;;;;;;0.60;90.82;99054.85;1749816;82;21612;-75
2020/12/26 01:32:46;;;;;;;4.62;3.10;;;;;;;0.60;90.64;99058.09;1749753;82;22035;-75
2020/12/26 01:35:13;;;;;;;6.08;3.90;;;;;;;0.59;90.46;99056.47;1720507;82;20931;-76
2020/12/26 01:37:41;;;;;;;5.53;2.83;;;;;;;0.60;90.54;99056.20;1743546;82;20966;-76
2020/12/26 01:40:10;;;;;;;6.17;3.35;;;;;;;0.57;89.93;99051.89;1719840;83;21018;-75
2020/12/26 01:42:39;;;;;;;7.87;3.35;;;;;;;0.55;89.77;99052.69;1719863;83;21580;-75
2020/12/26 01:45:09;;;;;;;8.50;3.12;;;;;;;0.53;89.35;99058.36;1718971;83;21383;-75
2020/12/26 01:47:37;;;;;;;9.05;2.72;;;;;;;0.50;88.99;99059.41;1719150;83;21093;-76
2020/12/26 01:50:07;;;;;;;5.97;3.08;;;;;;;0.47;88.74;99054.00;1717103;83;20992;-75
2020/12/26 01:52:34;;;;;;;4.60;3.00;;;;;;;0.46;88.71;99062.36;1718279;83;20946;-75
2020/12/26 01:55:01;;;;;;;6.47;3.55;;;;;;;0.45;88.48;99064.25;1690101;83;21621;-75
2020/12/26 01:57:35;;;;;;;5.95;2.52;;;;;;;0.44;87.85;99059.92;1718281;83;21396;-75
2020/12/26 02:00:07;;;;;;;4.50;2.55;;;;;;;0.44;88.09;99064.52;1718203;82;21019;-75
2020/12/26 02:02:51;;;;;;;3.67;2.20;;;;;;;0.48;86.90;99067.78;1871087;76;22281;-74
2020/12/26 02:05:20;;;;;;;4.45;2.25;;;;;;;0.43;86.15;99074.50;1758029;80;21018;-74
2020/12/26 02:07:47;;;;;;;3.08;1.70;;;;;;;0.41;85.83;99073.95;1780633;80;21379;-74
2020/12/26 02:10:15;;;;;;;4.55;2.30;;;;;;;0.40;85.27;99078.26;1780534;80;20962;-74
2020/12/26 02:12:43;;;;;;;4.72;2.10;;;;;;;0.41;85.59;99090.69;1758035;81;20934;-71
2020/12/26 02:15:14;;;;;;;3.37;1.87;;;;;;;0.41;84.88;99089.34;1780614;80;21007;-71
2020/12/26 02:17:42;;;;;;;5.85;2.20;;;;;;;0.40;83.41;99092.57;1780802;80;21050;-74
2020/12/26 02:20:10;;;;;;;4.20;2.17;;;;;;;0.40;84.01;99086.36;1758026;81;21420;-73
2020/12/26 02:22:37;;;;;;;5.28;2.67;;;;;;;0.41;83.98;99079.88;1780488;80;21062;-74
2020/12/26 02:25:05;;;;;;;6.55;3.58;;;;;;;0.42;84.04;99085.02;1780701;80;20943;-74
2020/12/26 02:27:34;;;;;;;13.45;5.67;;;;;;;0.44;83.99;99075.31;1757991;81;21060;-75
2020/12/26 02:30:01;;;;;;;14.47;5.42;;;;;;;0.44;83.32;99075.31;1780625;80;20967;-77
2020/12/26 02:32:29;;;;;;;12.37;4.25;;;;;;;0.41;83.17;99076.64;1757998;81;21364;-75
2020/12/26 02:34:57;;;;;;;8.55;4.25;;;;;;;0.41;83.13;99079.88;1780567;80;21038;-75
2020/12/26 02:37:25;;;;;;;8.38;3.42;;;;;;;0.40;83.46;99080.42;1777840;80;20896;-75
2020/12/26 02:39:52;;;;;;;9.68;3.25;;;;;;;0.38;83.34;99079.87;1749691;82;20939;-75
2020/12/26 02:42:21;;;;;;;6.35;3.33;;;;;;;0.39;83.19;99086.08;1749675;82;21010;-76
2020/12/26 02:44:48;;;;;;;4.08;2.30;;;;;;;0.37;83.12;99090.93;1749772;82;22276;-77
2020/12/26 02:47:16;;;;;;;4.47;2.35;;;;;;;0.36;83.70;99094.16;1749735;82;21473;-77
2020/12/26 02:49:44;;;;;;;4.80;2.35;;;;;;;0.36;83.63;99092.81;1749743;82;21489;-77
2020/12/26 02:52:11;;;;;;;5.60;2.50;;;;;;;0.34;83.47;99094.96;1749640;82;20922;-77
2020/12/26 02:54:39;;;;;;;4.15;2.47;;;;;;;0.31;83.92;99090.89;1749699;81;20990;-77
2020/12/26 02:57:06;;;;;;;5.00;2.40;;;;;;;0.32;83.95;99100.63;1719051;82;21281;-77
2020/12/26 02:59:33;;;;;;;5.90;3.00;;;;;;;0.31;84.00;99098.99;1749605;82;20954;-77
2020/12/26 03:02:01;;;;;;;6.80;3.20;;;;;;;0.30;84.14;99097.37;1752539;81;21002;-77
2020/12/26 03:04:28;;;;;;;6.42;2.85;;;;;;;0.31;84.34;99091.43;1755290;81;21128;-76
2020/12/26 03:06:56;;;;;;;4.53;2.15;;;;;;;0.32;84.14;99099.80;1755334;81;20931;-78
2020/12/26 03:09:23;;;;;;;7.05;3.22;;;;;;;0.30;83.90;99101.95;1755377;81;21479;-77
2020/12/26 03:11:51;;;;;;;6.42;3.30;;;;;;;0.29;84.20;99107.08;1755289;81;21010;-78
2020/12/26 03:14:18;;;;;;;4.80;2.77;;;;;;;0.28;83.83;99104.91;1754709;81;21555;-79
2020/12/26 03:16:46;;;;;;;5.53;3.30;;;;;;;0.26;83.64;99100.30;1754727;81;20939;-79
2020/12/26 03:19:13;;;;;;;4.47;2.62;;;;;;;0.25;83.78;99099.22;1754733;81;21584;-79
2020/12/26 03:21:41;;;;;;;3.70;1.77;;;;;;;0.23;83.75;99097.31;1754742;81;22186;-79
2020/12/26 03:24:09;;;;;;;3.55;1.90;;;;;;;0.20;84.26;99094.59;1754686;81;20998;-77
2020/12/26 03:26:37;;;;;;;4.92;2.65;;;;;;;0.18;84.35;99094.04;1754679;81;21042;-76
2020/12/26 03:29:04;;;;;;;2.50;1.70;;;;;;;0.16;84.20;99108.86;1754720;81;20899;-75
2020/12/26 03:31:32;;;;;;;4.62;2.77;;;;;;;0.11;83.75;99102.08;1754714;81;20919;-75
2020/12/26 03:33:59;;;;;;;7.00;3.52;;;;;;;0.05;83.96;99099.88;1754742;81;21336;-76
2020/12/26 03:36:27;;;;;;;5.40;2.27;;;;;;;0.03;83.99;99104.72;1754771;81;21628;-76
2020/12/26 03:38:54;;;;;;;5.92;2.98;;;;;;;0.02;84.12;99095.52;1754675;80;21089;-76
2020/12/26 03:41:22;;;;;;;6.22;3.25;;;;;;;-0.01;83.93;99092.84;1754663;81;20943;-76
2020/12/26 03:43:51;;;;;;;6.03;2.98;;;;;;;-0.05;83.97;99094.42;1754839;81;21533;-77
2020/12/26 03:46:19;;;;;;;5.37;3.00;;;;;;;-0.08;84.13;99096.28;1754701;81;21192;-76
2020/12/26 03:48:46;;;;;;;6.60;2.47;;;;;;;-0.13;84.32;99099.75;1754688;81;20907;-76
2020/12/26 03:51:15;;;;;;;6.80;2.77;;;;;;;-0.19;84.29;99097.27;1751334;81;20942;-76
2020/12/26 03:53:43;;;;;;;10.75;4.95;;;;;;;-0.24;84.42;99093.98;1754706;81;20891;-76
2020/12/26 03:56:18;;;;;;;10.75;4.40;;;;;;;-0.27;84.59;99097.20;1754726;81;20990;-76
2020/12/26 03:58:46;;;;;;;9.20;4.45;;;;;;;-0.32;84.61;99094.45;1754803;81;21199;-76
2020/12/26 04:01:13;;;;;;;12.23;4.78;;;;;;;-0.37;84.79;99097.09;1754562;81;21509;-74
2020/12/26 04:03:40;;;;;;;15.40;6.22;;;;;;;-0.43;85.06;99095.42;1727274;81;21002;-74
2020/12/26 04:06:08;;;;;;;17.48;7.45;;;;;;;-0.48;85.33;99096.19;1754676;81;21037;-75
2020/12/26 04:08:35;;;;;;;19.62;9.10;;;;;;;-0.52;85.59;99099.64;1754782;81;20942;-76
2020/12/26 04:11:03;;;;;;;14.23;7.42;;;;;;;-0.55;85.70;99104.19;1754642;81;21041;-76
2020/12/26 04:13:30;;;;;;;16.00;7.10;;;;;;;-0.61;85.76;99102.55;1754681;81;21006;-73
2020/12/26 04:15:58;;;;;;;16.10;7.17;;;;;;;-0.70;86.08;99111.61;1754694;81;21030;-75
2020/12/26 04:18:25;;;;;;;24.37;10.45;;;;;;;-0.80;86.35;99115.00;1754669;81;20966;-75
2020/12/26 04:20:53;;;;;;;28.55;10.48;;;;;;;-0.89;86.75;99120.56;1754664;81;21069;-76
2020/12/26 04:23:20;;;;;;;22.37;10.50;;;;;;;-0.95;87.12;99127.48;1754687;81;21826;-75
2020/12/26 04:25:48;;;;;;;18.37;8.65;;;;;;;-0.97;87.54;99127.73;1754554;81;21680;-75
2020/12/26 04:28:15;;;;;;;17.55;8.40;;;;;;;-0.96;87.81;99121.81;1754774;81;21457;-76
2020/12/26 04:30:42;;;;;;;22.62;9.43;;;;;;;-0.99;87.97;99117.73;1754718;81;21492;-75
2020/12/26 04:33:10;;;;;;;17.17;8.85;;;;;;;-1.01;88.13;99122.56;1754679;81;20946;-75
2020/12/26 04:35:38;;;;;;;19.32;7.25;;;;;;;-1.03;88.33;99131.42;1754668;81;21430;-74
2020/12/26 04:38:05;;;;;;;14.83;8.38;;;;;;;-1.04;88.56;99125.22;1754547;80;20895;-74
2020/12/26 04:40:37;;;;;;;14.15;7.87;;;;;;;-1.05;88.68;99123.59;1754771;81;21486;-74
2020/12/26 04:43:06;;;;;;;14.40;7.05;;;;;;;-1.07;88.78;99123.56;1727477;81;20950;-74
2020/12/26 04:45:34;;;;;;;17.23;6.80;;;;;;;-1.09;88.98;99124.34;1754743;81;20951;-74
2020/12/26 04:48:05;;;;;;;16.32;7.30;;;;;;;-1.14;89.09;99129.13;1754695;81;21568;-74
2020/12/26 04:50:34;;;;;;;11.95;6.08;;;;;;;-1.18;89.21;99132.60;1754732;81;21482;-74
2020/12/26 04:53:04;;;;;;;11.73;6.72;;;;;;;-1.20;89.42;99136.08;1754672;81;21006;-74
2020/12/26 04:55:36;;;;;;;11.80;6.37;;;;;;;-1.24;89.41;99138.98;1754681;81;21006;-75
2020/12/26 04:58:11;;;;;;;13.18;6.90;;;;;;;-1.28;89.45;99141.36;1754859;81;20930;-75
2020/12/26 05:00:39;;;;;;;16.70;7.20;;;;;;;-1.32;89.55;99145.61;1754701;81;21560;-76
2020/12/26 05:03:09;;;;;;;17.10;7.42;;;;;;;-1.38;89.71;99147.41;1754420;81;21053;-76
2020/12/26 05:05:43;;;;;;;16.30;7.90;;;;;;;-1.44;89.83;99147.59;1754670;81;21513;-75
2020/12/26 05:08:15;;;;;;;18.35;10.25;;;;;;;-1.49;90.02;99159.62;1754656;81;20959;-72
2020/12/26 05:10:43;;;;;;;24.12;10.63;;;;;;;-1.58;90.12;99157.88;1754724;81;20938;-74
2020/12/26 05:13:12;;;;;;;27.30;9.63;;;;;;;-1.63;90.39;99171.27;1754728;81;21379;-73
2020/12/26 05:15:40;;;;;;;32.15;12.40;;;;;;;-1.62;90.84;99175.59;1754511;81;20963;-74
2020/12/26 05:18:07;;;;;;;20.52;9.05;;;;;;;-1.58;91.20;99170.52;1754711;81;21611;-76
2020/12/26 05:20:35;;;;;;;20.52;9.10;;;;;;;-1.56;91.43;99174.60;1754600;81;20942;-76
2020/12/26 05:23:17;;;;;;;20.77;9.85;;;;;;;-1.55;91.65;99178.92;1754623;81;20911;-76
2020/12/26 05:25:48;;;;;;;20.90;9.33;;;;;;;-1.57;91.66;99182.39;1754843;81;21375;-73
2020/12/26 05:28:18;;;;;;;21.15;9.58;;;;;;;-1.61;91.51;99184.47;1754583;81;20982;-74
2020/12/26 05:30:49;;;;;;;15.83;7.83;;;;;;;-1.67;91.47;99188.96;1754661;81;20938;-76
2020/12/26 05:33:17;;;;;;;14.15;6.45;;;;;;;-1.70;91.66;99183.53;1754685;81;21509;-76
2020/12/26 05:35:51;;;;;;;8.25;5.00;;;;;;;-1.69;91.94;99186.52;1754787;80;20952;-72
2020/12/26 05:38:22;;;;;;;13.68;6.15;;;;;;;-1.66;92.15;99190.59;1752758;81;21422;-71
2020/12/26 05:40:52;;;;;;;8.73;5.30;;;;;;;-1.62;92.29;99190.92;1752938;81;21353;-72
2020/12/26 05:43:26;;;;;;;19.00;7.80;;;;;;;-1.59;92.40;99189.08;1752759;81;20971;-70
2020/12/26 05:45:55;;;;;;;20.92;8.98;;;;;;;-1.57;92.44;99191.81;1752842;81;20940;-72
2020/12/26 05:48:25;;;;;;;27.62;10.43;;;;;;;-1.57;92.36;99197.73;1752885;81;20909;-69
2020/12/26 05:50:58;;;;;;;18.82;9.40;;;;;;;-1.56;92.37;99194.79;1752767;81;21376;-70
2020/12/26 05:53:27;;;;;;;18.55;8.80;;;;;;;-1.57;92.21;99197.20;1752684;81;21032;-75
2020/12/26 05:55:54;;;;;;;13.08;6.92;;;;;;;-1.61;92.18;99194.71;1752737;81;20956;-74
2020/12/26 05:58:24;;;;;;;13.15;6.80;;;;;;;-1.67;92.01;99202.41;1752786;81;21502;-71
2020/12/26 06:00:52;;;;;;;19.23;6.85;;;;;;;-1.75;91.96;99205.55;1752736;81;20937;-71
2020/12/26 06:03:32;;;;;;;12.58;6.70;;;;;;;-1.81;92.05;99207.33;1752623;81;21760;-71
2020/12/26 06:06:02;;;;;;;19.95;5.70;;;;;;;-1.82;92.23;99210.27;1752690;81;20964;-70
2020/12/26 06:08:30;;;;;;;10.43;4.67;;;;;;;-1.86;92.26;99215.84;1752825;81;20996;-69
2020/12/26 06:11:02;;;;;;;10.53;5.00;;;;;;;-1.91;92.30;99219.27;1752626;81;21675;-70
2020/12/26 06:13:31;;;;;;;;;;;;;;;-1.94;92.52;99220.27;1755377;81;21175;-70
2020/12/26 06:16:11;;;;;;;14.15;5.65;;;;;;;-1.93;92.70;99224.06;1752746;81;21353;-69
2020/12/26 06:18:41;;;;;;;12.63;3.98;;;;;;;-1.93;92.94;99225.94;1752701;81;21020;-69
2020/12/26 06:21:09;;;;;;;5.40;3.20;;;;;;;-1.90;93.14;99238.91;1752722;81;21144;-70
2020/12/26 06:23:38;;;;;;;6.87;3.55;;;;;;;-1.88;93.37;99251.59;1752697;81;21067;-70
2020/12/26 06:26:06;;;;;;;8.33;4.50;;;;;;;-1.86;93.58;99258.89;1752745;81;21088;-70
2020/12/26 06:28:34;;;;;;;13.28;7.87;;;;;;;-1.84;93.71;99263.50;1752682;81;21179;-70
2020/12/26 06:31:09;;;;;;;11.10;6.33;;;;;;;-1.83;93.77;99261.92;1752641;81;21083;-69
2020/12/26 06:33:42;;;;;;;9.43;5.70;;;;;;;-1.79;93.95;99260.91;1752836;81;21086;-71
2020/12/26 06:36:10;;;;;;;9.70;5.30;;;;;;;-1.76;94.16;99262.59;1752634;81;21058;-71
2020/12/26 06:38:38;;;;;;;8.80;5.08;;;;;;;-1.70;94.47;99256.20;1752672;81;21047;-70
2020/12/26 06:41:17;;;;;;;13.03;5.75;;;;;;;-1.60;94.82;99262.29;1752667;81;21364;-69
2020/12/26 06:43:54;;;;;;;11.95;5.92;;;;;;;-1.48;95.20;99264.38;1752786;81;21102;-70
2020/12/26 06:46:28;;;;;;;10.30;5.05;;;;;;;-1.34;95.50;99264.88;1752727;81;20956;-70
2020/12/26 06:48:57;;;;;;;8.85;5.10;;;;;;;-1.21;95.59;99259.16;1752921;81;21074;-72
2020/12/26 06:51:37;;;;;;;6.90;4.10;;;;;;;-1.09;95.65;99269.28;1752836;81;21178;-69
2020/12/26 06:54:07;;;;;;;7.47;4.35;;;;;;;-0.95;95.62;99263.55;1751045;81;22105;-71
2020/12/26 06:56:43;;;;;;;;;;;;;;;-0.76;95.78;99270.30;1756709;80;20941;-70
2020/12/26 06:59:11;;;;;;;6.53;4.03;;;;;;;-0.58;95.55;99274.05;1753278;81;20212;-70
2020/12/26 07:01:44;;;;;;;6.75;4.28;;;;;;;-0.47;95.11;99270.93;1752814;81;21181;-69
2020/12/26 07:04:17;;;;;;;10.03;3.83;;;;;;;-0.38;94.68;99268.08;1744375;81;21150;-68
2020/12/26 07:06:48;;;;;;;6.17;3.60;;;;;;;-0.32;94.43;99269.77;1743402;82;21374;-68
2020/12/26 07:09:19;;;;;;;6.90;3.70;;;;;;;-0.24;94.28;99269.33;1743258;82;20970;-69
2020/12/26 07:11:52;;;;;;;7.03;3.67;;;;;;;-0.18;93.97;99265.62;1743577;81;21061;-70
2020/12/26 07:14:36;;;;;;;8.23;4.75;;;;;;;-0.15;93.63;99261.08;1726250;82;21130;-71
2020/12/26 07:17:16;;;;;;;8.50;5.12;;;;;;;-0.08;93.51;99277.07;1743327;82;21494;-71
2020/12/26 07:19:45;;;;;;;8.45;4.85;;;;;;;-0.02;93.28;99289.02;1743318;82;21380;-71
2020/12/26 07:22:20;;;;;;;9.83;4.65;;;;;;;0.00;92.80;99290.12;1743275;82;21499;-71
2020/12/26 07:24:56;;;;;;;11.30;5.65;;;;;;;0.02;92.47;99290.65;1743202;82;21027;-72
2020/12/26 07:27:32;;;;;;;76.77;29.18;;;;;;;0.04;92.36;99291.21;1743277;81;20951;-72
2020/12/26 07:30:17;;;;;;;41.28;17.37;;;;;;;0.07;92.28;99298.80;1743330;82;21157;-71
2020/12/26 07:32:57;;;;;;;28.85;11.53;;;;;;;0.08;91.86;99298.27;1743383;82;21483;-70
2020/12/26 07:35:33;;;;;;;11.12;5.20;;;;;;;0.08;91.53;99299.63;1743201;81;21059;-70
2020/12/26 07:38:10;;;;;;;8.65;4.58;;;;;;;0.08;91.43;99295.03;1743261;82;21559;-72
2020/12/26 07:40:46;;;;;;;5.65;3.30;;;;;;;0.10;91.24;99298.83;1743262;82;21035;-72
2020/12/26 07:43:16;;;;;;;5.65;3.20;;;;;;;0.11;91.09;99300.46;1743282;82;21062;-73
2020/12/26 07:45:46;;;;;;;6.85;3.90;;;;;;;0.11;90.80;99306.67;1743269;81;21260;-73
2020/12/26 07:48:14;;;;;;;15.78;6.28;;;;;;;0.12;90.47;99314.23;1743223;82;20976;-76
2020/12/26 07:50:43;;;;;;;12.00;5.15;;;;;;;0.12;90.33;99308.84;1743235;81;20940;-73
2020/12/26 07:53:13;;;;;;;15.68;7.53;;;;;;;0.13;90.25;99315.87;1743212;82;20979;-70
2020/12/26 07:55:41;;;;;;;13.38;6.28;;;;;;;0.11;89.99;99316.13;1743389;82;21601;-69
2020/12/26 07:58:16;;;;;;;18.07;9.85;;;;;;;0.12;90.01;99314.23;1743208;82;21383;-72
2020/12/26 08:00:44;;;;;;;10.20;5.97;;;;;;;0.15;90.54;99310.50;1743198;82;20976;-70
2020/12/26 08:03:13;;;;;;;10.20;5.15;;;;;;;0.21;90.81;99313.53;1744336;81;21146;-70
2020/12/26 08:05:48;;;;;;;19.02;7.97;;;;;;;0.24;90.23;99313.56;1747283;82;21486;-70
2020/12/26 08:08:21;;;;;;;21.80;9.65;;;;;;;0.22;89.69;99315.17;1747265;82;21503;-70
2020/12/26 08:10:57;;;;;;;29.37;14.35;;;;;;;0.23;89.77;99320.03;1747396;82;21571;-69
2020/12/26 08:13:25;;;;;;;16.60;7.12;;;;;;;0.24;89.92;99307.63;1747220;82;20948;-72
2020/12/26 08:16:04;;;;;;;10.10;5.42;;;;;;;0.26;89.98;99310.08;1747184;82;21087;-71
2020/12/26 08:18:34;;;;;;;11.35;5.25;;;;;;;0.28;90.24;99321.44;1746987;82;21520;-72
2020/12/26 08:21:02;;;;;;;19.55;10.53;;;;;;;0.35;90.95;99319.89;1747167;81;21154;-73
2020/12/26 08:23:30;;;;;;;25.70;11.63;;;;;;;0.37;90.59;99315.86;1747172;82;21479;-73
2020/12/26 08:26:01;;;;;;;11.15;6.12;;;;;;;0.40;90.51;99326.16;1747144;82;21040;-73
2020/12/26 08:28:30;;;;;;;;;;;;;;;0.41;90.25;99325.09;1749819;82;21012;-72
2020/12/26 08:31:02;;;;;;;14.90;7.92;;;;;;;0.41;90.54;99321.57;1747216;82;20297;-72
2020/12/26 08:33:40;;;;;;;15.30;7.92;;;;;;;0.41;90.49;99308.88;1696292;82;21151;-72
2020/12/26 08:36:28;;;;;;;14.60;6.58;;;;;;;0.41;90.38;99302.14;1747300;82;22461;-72
2020/12/26 08:38:58;;;;;;;13.65;6.75;;;;;;;0.42;90.36;99295.66;1746547;82;20956;-72
2020/12/26 08:41:26;;;;;;;36.00;14.53;;;;;;;0.40;90.06;99296.45;1747576;82;21476;-72
2020/12/26 08:43:54;;;;;;;28.67;13.30;;;;;;;0.39;90.18;99297.52;1747089;82;20956;-72
2020/12/26 08:46:25;;;;;;;39.78;17.50;;;;;;;0.41;90.34;99280.53;1747177;82;21190;-71
2020/12/26 08:48:55;;;;;;;46.53;21.17;;;;;;;0.45;90.37;99273.55;1747230;82;21212;-72
2020/12/26 08:51:25;;;;;;;15.23;7.28;;;;;;;0.49;90.39;99268.45;1747237;81;21468;-72
2020/12/26 08:53:56;;;;;;;11.97;6.70;;;;;;;0.55;90.32;99269.59;1747180;82;20937;-72
2020/12/26 08:56:38;;;;;;;44.35;17.48;;;;;;;0.59;90.26;99281.48;1747168;82;21051;-71
2020/12/26 08:59:05;;;;;;;17.15;7.75;;;;;;;0.62;90.18;99301.22;1747091;82;21071;-71
2020/12/26 09:01:35;;;;;;;27.50;13.43;;;;;;;0.64;89.96;99307.19;1747164;82;21206;-72
2020/12/26 09:04:03;;;;;;;17.25;9.08;;;;;;;0.65;89.94;99312.05;1746939;81;21086;-72
2020/12/26 09:06:33;;;;;;;18.00;8.75;;;;;;;0.64;89.76;99319.88;1747160;82;20948;-72
2020/12/26 09:09:20;;;;;;;14.58;7.55;;;;;;;0.64;90.04;99318.00;1746935;81;21182;-71
2020/12/26 09:11:49;;;;;;;11.15;5.97;;;;;;;0.66;90.05;99315.03;1752759;81;21066;-71
2020/12/26 09:14:21;;;;;;;8.28;5.50;;;;;;;0.67;90.00;99320.72;1751331;81;22367;-70
2020/12/26 09:16:57;;;;;;;11.08;6.28;;;;;;;0.68;90.01;99338.56;1749674;80;21067;-74
2020/12/26 09:19:25;;;;;;;12.43;6.33;;;;;;;0.68;90.02;99349.37;1749808;82;21112;-72
2020/12/26 09:22:06;;;;;;;15.18;7.30;;;;;;;0.69;90.00;99342.89;1720318;83;21059;-71
2020/12/26 09:24:34;;;;;;;12.03;6.65;;;;;;;0.70;90.28;99348.58;1720081;83;21099;-72
2020/12/26 09:27:02;;;;;;;12.63;6.80;;;;;;;0.71;90.28;99340.75;1720220;83;21830;-71
2020/12/26 09:29:29;;;;;;;19.02;7.00;;;;;;;0.73;90.38;99349.95;1719810;83;21178;-72
2020/12/26 09:31:57;;;;;;;13.22;7.08;;;;;;;0.74;90.27;99355.63;1719863;83;21139;-71
2020/12/26 09:34:25;;;;;;;18.07;9.35;;;;;;;0.73;90.19;99362.92;1691671;83;21177;-72
2020/12/26 09:37:06;;;;;;;18.70;9.73;;;;;;;0.70;90.34;99356.69;1746635;82;21476;-73
2020/12/26 09:39:35;;;;;;;12.85;7.30;;;;;;;0.69;90.45;99369.91;1748704;80;21375;-71
2020/12/26 09:42:03;;;;;;;11.68;6.80;;;;;;;0.67;90.58;99370.70;1749747;82;20971;-70
2020/12/26 09:44:30;;;;;;;11.83;7.05;;;;;;;0.68;90.75;99372.87;1749697;82;21037;-72
2020/12/26 09:47:03;;;;;;;13.43;7.45;;;;;;;0.69;90.97;99370.45;1749729;82;21132;-72
2020/12/26 09:49:31;;;;;;;15.25;7.80;;;;;;;0.71;91.11;99360.20;1749774;82;21132;-71
2020/12/26 09:51:58;;;;;;;17.75;7.80;;;;;;;0.73;91.21;99360.22;1749902;82;22359;-71
2020/12/26 09:54:26;;;;;;;12.73;7.70;;;;;;;0.75;91.33;99357.27;1749453;81;21136;-73
2020/12/26 09:56:54;;;;;;;18.62;7.75;;;;;;;0.78;91.50;99352.70;1752510;81;21225;-72
2020/12/26 09:59:22;;;;;;;14.43;8.45;;;;;;;0.82;91.72;99353.82;1752656;81;21130;-73
2020/12/26 10:01:50;;;;;;;21.70;11.83;;;;;;;0.85;91.67;99356.01;1752130;81;21135;-73
2020/12/26 10:04:17;;;;;;;23.77;11.53;;;;;;;0.86;91.68;99356.29;1719973;82;21376;-74
2020/12/26 10:06:45;;;;;;;16.65;9.05;;;;;;;0.90;91.99;99361.46;1720329;83;21079;-72
2020/12/26 10:09:13;;;;;;;24.50;11.00;;;;;;;0.93;91.85;99360.95;1692715;83;21068;-72
2020/12/26 10:11:41;;;;;;;21.65;12.00;;;;;;;0.95;91.91;99369.62;1720643;83;21186;-74
2020/12/26 10:14:09;;;;;;;22.67;10.75;;;;;;;0.98;92.05;99373.97;1720695;83;21163;-73
2020/12/26 10:16:37;;;;;;;16.15;8.88;;;;;;;1.01;91.84;99373.99;1720716;83;21071;-72
2020/12/26 10:19:05;;;;;;;26.50;12.65;;;;;;;1.02;91.92;99367.52;1720641;83;21107;-71
2020/12/26 10:21:34;;;;;;;18.27;9.53;;;;;;;1.04;92.15;99369.42;1720705;83;21055;-71
2020/12/26 10:24:01;;;;;;;14.18;8.65;;;;;;;1.08;92.10;99373.25;1720711;82;21155;-71
2020/12/26 10:26:29;;;;;;;11.97;7.58;;;;;;;1.09;92.07;99373.52;1718844;83;21769;-74
2020/12/26 10:28:56;;;;;;;12.50;7.25;;;;;;;1.12;92.04;99374.89;1719264;83;21200;-70
2020/12/26 10:31:29;;;;;;;12.75;7.42;;;;;;;1.13;92.16;99378.70;1719482;83;21182;-71
2020/12/26 10:33:58;;;;;;;16.25;8.53;;;;;;;1.18;92.22;99386.00;1719584;83;21215;-70
2020/12/26 10:36:25;;;;;;;18.98;9.75;;;;;;;1.21;92.22;99385.48;1719577;83;21183;-72
2020/12/26 10:38:53;;;;;;;30.10;13.18;;;;;;;1.23;92.24;99388.21;1735553;80;21177;-74
2020/12/26 10:41:21;;;;;;;16.77;8.40;;;;;;;1.25;92.06;99392.82;1745971;80;21380;-77
2020/12/26 10:43:49;;;;;;;12.47;7.95;;;;;;;1.24;91.84;99397.14;1737205;80;21144;-79
2020/12/26 10:46:16;;;;;;;18.90;8.38;;;;;;;1.21;92.02;99393.59;1749375;80;21052;-80
2020/12/26 10:48:44;;;;;;;20.35;12.13;;;;;;;1.22;92.12;99408.21;1748330;81;21084;-70
2020/12/26 10:51:11;;;;;;;18.20;9.88;;;;;;;1.22;92.14;99400.64;1748183;80;21570;-81
2020/12/26 10:53:39;;;;;;;16.95;8.53;;;;;;;1.22;92.04;99399.28;1747482;80;21377;-77
2020/12/26 10:56:08;;;;;;;14.80;7.80;;;;;;;1.24;92.40;99398.48;1748631;81;21162;-80
2020/12/26 10:58:36;;;;;;;14.03;8.23;;;;;;;1.25;92.35;99403.64;1748899;82;21487;-70
2020/12/26 11:01:03;;;;;;;15.32;7.92;;;;;;;1.26;92.37;99401.22;1749490;82;21075;-75
2020/12/26 11:03:31;;;;;;;13.83;7.83;;;;;;;1.28;92.38;99397.72;1750513;80;20960;-70
2020/12/26 11:05:59;;;;;;;19.55;8.30;;;;;;;1.29;92.21;99399.34;1749049;81;21382;-84
2020/12/26 11:08:27;;;;;;;14.73;9.15;;;;;;;1.31;92.31;99408.55;1747158;81;20960;-83
2020/12/26 11:10:58;;;;;;;15.25;8.83;;;;;;;1.32;92.17;99403.42;1748924;80;21024;-78
2020/12/26 11:13:26;;;;;;;18.87;9.65;;;;;;;1.32;92.20;99400.72;1751825;80;21552;-82
2020/12/26 11:15:55;;;;;;;15.80;8.68;;;;;;;1.33;92.36;99394.23;1748771;80;21575;-84
2020/12/26 11:18:22;;;;;;;18.35;8.73;;;;;;;1.34;92.33;99397.22;1750662;81;21331;-72
2020/12/26 11:20:51;;;;;;;15.95;9.05;;;;;;;1.35;92.27;99395.33;1750631;82;21001;-76
2020/12/26 11:23:19;;;;;;;28.27;10.65;;;;;;;1.36;92.32;99383.44;1758885;81;21021;-76
2020/12/26 11:25:47;;;;;;;17.45;10.25;;;;;;;1.36;92.38;99390.20;1748325;82;21472;-76
2020/12/26 11:28:16;;;;;;;16.52;8.63;;;;;;;1.38;92.40;99392.11;1755730;81;21076;-74
2020/12/26 11:30:44;;;;;;;16.00;9.10;;;;;;;1.39;92.40;99389.68;1758907;80;22319;-77
2020/12/26 11:33:11;;;;;;;17.62;9.53;;;;;;;1.39;92.42;99388.33;1750570;80;21140;-77
2020/12/26 11:35:39;;;;;;;17.80;10.23;;;;;;;1.39;92.36;99388.33;1750644;82;21163;-81
2020/12/26 11:38:06;;;;;;;21.07;11.10;;;;;;;1.38;92.26;99383.45;1750620;81;20925;-79
2020/12/26 11:40:34;;;;;;;15.25;8.65;;;;;;;1.39;92.30;99385.63;1752749;81;21083;-82
2020/12/26 11:43:04;;;;;;;14.33;8.70;;;;;;;1.38;92.17;99384.81;1753515;81;21197;-73
2020/12/26 11:45:32;;;;;;;20.62;11.60;;;;;;;1.37;92.18;99387.23;1753531;81;21020;-74